TimeCST,TemperatureF,Dew PointF,Humidity,Sea Level PressureIn,VisibilityMPH,Wind Direction,Wind SpeedMPH,Gust SpeedMPH,PrecipitationIn,Events,Conditions,WindDirDegrees,DateUTC
12:53 AM,39.9,33.1,77,30.29,10.0,NNE,3.5,-,N/A,,Clear,30,2013-03-07 06:53:00
1:53 AM,41.0,35.1,79,30.29,10.0,Calm,Calm,-,N/A,,Clear,0,2013-03-07 07:53:00
2:53 AM,37.9,34.0,86,30.27,10.0,Calm,Calm,-,N/A,,Clear,0,2013-03-07 08:53:00
3:53 AM,36.0,33.1,89,30.27,10.0,Calm,Calm,-,N/A,,Clear,0,2013-03-07 09:53:00
4:53 AM,33.1,30.9,92,30.28,10.0,Calm,Calm,-,N/A,,Clear,0,2013-03-07 10:53:00
5:53 AM,33.1,30.0,89,30.29,10.0,Calm,Calm,-,N/A,,Clear,0,2013-03-07 11:53:00
6:53 AM,32.0,30.0,92,30.32,9.0,Calm,Calm,-,N/A,,Clear,0,2013-03-07 12:53:00
7:53 AM,43.0,34.0,71,30.35,10.0,East,4.6,-,N/A,,Clear,80,2013-03-07 13:53:00
8:53 AM,48.0,33.1,56,30.37,10.0,East,4.6,-,N/A,,Clear,100,2013-03-07 14:53:00
9:53 AM,52.0,30.9,45,30.36,10.0,Variable,3.5,-,N/A,,Clear,0,2013-03-07 15:53:00
10:53 AM,57.0,30.0,36,30.35,10.0,ESE,6.9,-,N/A,,Clear,110,2013-03-07 16:53:00
11:53 AM,61.0,28.0,29,30.32,10.0,ESE,6.9,-,N/A,,Clear,120,2013-03-07 17:53:00
12:53 PM,64.9,30.0,27,30.30,10.0,ESE,5.8,-,N/A,,Clear,120,2013-03-07 18:53:00
1:53 PM,66.0,28.0,24,30.27,10.0,Variable,5.8,-,N/A,,Clear,0,2013-03-07 19:53:00
2:53 PM,66.0,27.0,23,30.25,10.0,East,4.6,-,N/A,,Clear,90,2013-03-07 20:53:00
3:53 PM,64.9,27.0,24,30.24,10.0,Calm,Calm,-,N/A,,Clear,0,2013-03-07 21:53:00
4:53 PM,66.0,28.9,25,30.24,10.0,East,4.6,-,N/A,,Clear,90,2013-03-07 22:53:00
5:53 PM,59.0,30.0,33,30.24,10.0,Calm,Calm,-,N/A,,Clear,0,2013-03-07 23:53:00
6:53 PM,51.1,34.0,52,30.25,10.0,Calm,Calm,-,N/A,,Clear,0,2013-03-08 00:53:00
7:53 PM,46.0,36.0,68,30.25,10.0,Calm,Calm,-,N/A,,Clear,0,2013-03-08 01:53:00
8:53 PM,43.0,35.1,74,30.25,10.0,Calm,Calm,-,N/A,,Clear,0,2013-03-08 02:53:00
9:53 PM,41.0,35.1,79,30.26,10.0,Calm,Calm,-,N/A,,Clear,0,2013-03-08 03:53:00
10:53 PM,39.9,35.1,83,30.26,10.0,Calm,Calm,-,N/A,,Clear,0,2013-03-08 04:53:00
11:53 PM,39.0,35.1,86,30.25,10.0,Calm,Calm,-,N/A,,Clear,0,2013-03-08 05:53:00